createdAt,value
2022-09-09T00:02:02.870Z,15.55
2022-09-09T00:04:33.334Z,15.46
2022-09-09T00:07:49.542Z,15.44
2022-09-09T00:10:40.404Z,15.38
2022-09-09T00:13:34.263Z,15.37
2022-09-09T00:16:10.623Z,15.34
2022-09-09T00:19:02.169Z,15.34
2022-09-09T00:21:39.648Z,15.24
2022-09-09T00:24:27.717Z,15.24
2022-09-09T00:27:02.595Z,15.22
2022-09-09T00:30:13.178Z,15.25
2022-09-09T00:32:40.259Z,15.30
2022-09-09T00:35:26.118Z,15.32
2022-09-09T00:37:59.160Z,15.27
2022-09-09T00:40:32.862Z,15.11
2022-09-09T00:43:32.373Z,15.13
2022-09-09T00:46:19.142Z,15.12
2022-09-09T00:49:16.494Z,15.00
2022-09-09T00:52:09.007Z,14.87
2022-09-09T00:55:02.880Z,14.81
2022-09-09T00:57:33.378Z,14.79
2022-09-09T01:00:26.325Z,14.83
2022-09-09T01:03:37.423Z,14.85
2022-09-09T01:06:35.025Z,14.80
2022-09-09T01:09:39.215Z,14.77
2022-09-09T01:12:13.280Z,14.73
2022-09-09T01:14:53.095Z,14.74
2022-09-09T01:17:32.226Z,14.79
2022-09-09T01:20:11.667Z,14.85
2022-09-09T01:23:28.083Z,14.93
2022-09-09T01:26:20.545Z,14.93
2022-09-09T01:28:50.651Z,14.89
2022-09-09T01:31:53.282Z,14.90
2022-09-09T01:34:21.597Z,14.93
2022-09-09T01:37:01.434Z,14.88
2022-09-09T01:39:28.580Z,14.85
2022-09-09T01:41:56.994Z,14.86
2022-09-09T01:44:25.519Z,14.87
2022-09-09T01:46:52.430Z,14.87
2022-09-09T01:49:19.850Z,14.90
2022-09-09T01:51:53.421Z,14.95
2022-09-09T01:54:23.137Z,14.96
2022-09-09T01:57:17.129Z,14.97
2022-09-09T02:00:09.059Z,14.95
2022-09-09T02:03:02.054Z,14.97
2022-09-09T02:05:38.796Z,14.97
2022-09-09T02:08:14.024Z,15.02
2022-09-09T02:10:49.116Z,15.01
2022-09-09T02:13:19.814Z,15.03
2022-09-09T02:16:05.730Z,15.05
2022-09-09T02:18:52.486Z,15.05
2022-09-09T02:21:19.763Z,15.00
2022-09-09T02:23:48.762Z,15.01
2022-09-09T02:26:21.202Z,15.01
2022-09-09T02:28:50.598Z,14.96
2022-09-09T02:31:23.370Z,15.03
2022-09-09T02:33:57.175Z,15.11
2022-09-09T02:36:27.884Z,15.16
2022-09-09T02:38:55.398Z,15.14
2022-09-09T02:41:28.811Z,15.14
2022-09-09T02:43:55.591Z,15.18
2022-09-09T02:46:39.445Z,15.24
2022-09-09T02:49:44.760Z,15.23
2022-09-09T02:52:17.209Z,15.21
2022-09-09T02:54:44.477Z,15.19
2022-09-09T02:57:22.611Z,15.18
2022-09-09T02:59:50.933Z,15.13
2022-09-09T03:02:17.763Z,15.02
2022-09-09T03:04:45.426Z,14.87
2022-09-09T03:07:13.079Z,14.78
2022-09-09T03:09:39.850Z,14.74
2022-09-09T03:12:08.016Z,14.75
2022-09-09T03:14:34.753Z,14.75
2022-09-09T03:17:03.263Z,14.71
2022-09-09T03:19:30.899Z,14.79
2022-09-09T03:21:59.074Z,14.79
2022-09-09T03:24:26.578Z,14.79
2022-09-09T03:26:53.531Z,14.89
2022-09-09T03:29:20.290Z,14.86
2022-09-09T03:31:47.190Z,14.91
2022-09-09T03:34:14.690Z,15.00
2022-09-09T03:36:42.171Z,15.03
2022-09-09T03:39:09.007Z,15.15
2022-09-09T03:41:35.809Z,15.14
2022-09-09T03:44:02.858Z,15.18
2022-09-09T03:46:29.610Z,15.33
2022-09-09T03:48:56.420Z,15.22
2022-09-09T03:51:23.225Z,15.29
2022-09-09T03:53:50.083Z,15.34
2022-09-09T03:56:16.881Z,15.35
2022-09-09T03:58:43.635Z,15.30
2022-09-09T04:01:17.359Z,15.32
2022-09-09T04:03:45.594Z,15.44
2022-09-09T04:06:15.445Z,15.38
2022-09-09T04:08:42.680Z,15.64
2022-09-09T04:11:09.600Z,15.77
2022-09-09T04:13:39.927Z,15.84
2022-09-09T04:16:07.983Z,15.92
2022-09-09T04:18:35.967Z,15.62
2022-09-09T04:21:04.584Z,15.72
2022-09-09T04:23:31.678Z,15.57
2022-09-09T04:26:00.258Z,15.46
2022-09-09T04:28:30.762Z,15.36
2022-09-09T04:30:58.486Z,15.34
2022-09-09T04:33:28.941Z,15.36
2022-09-09T04:35:55.895Z,15.30
2022-09-09T04:38:23.923Z,15.30
2022-09-09T04:40:52.793Z,15.28
2022-09-09T04:43:19.919Z,15.25
2022-09-09T04:45:50.239Z,15.34
2022-09-09T04:48:17.051Z,15.23
2022-09-09T04:50:43.874Z,15.35
2022-09-09T04:53:10.835Z,15.51
2022-09-09T04:55:37.597Z,15.64
2022-09-09T04:58:09.308Z,15.75
2022-09-09T05:00:37.138Z,15.86
2022-09-09T05:03:06.478Z,15.89
2022-09-09T05:05:35.109Z,15.92
2022-09-09T05:08:09.936Z,15.96
2022-09-09T05:10:39.331Z,16.00
2022-09-09T05:13:07.521Z,16.02
2022-09-09T05:15:34.456Z,16.09
2022-09-09T05:18:03.333Z,16.11
2022-09-09T05:20:30.530Z,16.07
2022-09-09T05:22:57.987Z,16.07
2022-09-09T05:25:26.927Z,16.07
2022-09-09T05:27:54.735Z,16.12
2022-09-09T05:30:23.636Z,16.13
2022-09-09T05:32:51.040Z,16.13
2022-09-09T05:35:19.938Z,16.14
2022-09-09T05:37:47.004Z,16.17
2022-09-09T05:40:14.027Z,16.12
2022-09-09T05:42:41.694Z,16.14
2022-09-09T05:45:10.335Z,16.23
2022-09-09T05:47:38.209Z,16.35
2022-09-09T05:50:06.048Z,16.40
2022-09-09T05:52:33.599Z,16.47
2022-09-09T05:55:00.660Z,16.57
2022-09-09T05:57:27.679Z,16.51
2022-09-09T05:59:54.614Z,16.34
2022-09-09T06:02:21.718Z,16.47
2022-09-09T06:04:48.592Z,16.65
2022-09-09T06:07:15.556Z,16.80
2022-09-09T06:09:42.397Z,16.96
2022-09-09T06:12:09.864Z,17.01
2022-09-09T06:14:37.727Z,17.10
2022-09-09T06:17:04.737Z,17.19
2022-09-09T06:19:31.751Z,17.21
2022-09-09T06:21:59.471Z,17.28
2022-09-09T06:24:27.139Z,17.38
2022-09-09T06:26:54.967Z,17.49
2022-09-09T06:29:21.747Z,17.56
2022-09-09T06:31:48.779Z,17.69
2022-09-09T06:34:16.143Z,17.78
2022-09-09T06:36:43.467Z,17.86
2022-09-09T06:39:14.791Z,17.90
2022-09-09T06:41:43.308Z,17.93
2022-09-09T06:44:12.703Z,17.98
2022-09-09T06:46:40.497Z,18.01
2022-09-09T06:49:08.858Z,18.12
2022-09-09T06:51:43.397Z,18.23
2022-09-09T06:54:12.119Z,18.32
2022-09-09T06:56:44.470Z,18.09
2022-09-09T06:59:12.996Z,18.11
2022-09-09T07:01:42.717Z,18.16
2022-09-09T07:04:11.766Z,18.34
2022-09-09T07:06:44.072Z,18.24
2022-09-09T07:09:14.051Z,18.27
2022-09-09T07:11:44.414Z,18.42
2022-09-09T07:14:15.387Z,18.49
2022-09-09T07:16:45.710Z,18.58
2022-09-09T07:19:15.012Z,18.71
2022-09-09T07:21:42.083Z,18.72
2022-09-09T07:24:11.066Z,18.80
2022-09-09T07:26:40.266Z,18.78
2022-09-09T07:29:07.615Z,18.78
2022-09-09T07:31:38.126Z,18.76
2022-09-09T07:34:05.853Z,18.69
2022-09-09T07:36:40.899Z,18.60
2022-09-09T07:39:18.247Z,18.69
2022-09-09T07:41:48.732Z,18.63
2022-09-09T07:44:22.723Z,18.67
2022-09-09T07:46:50.126Z,18.72
2022-09-09T07:49:16.975Z,18.76
2022-09-09T07:51:48.239Z,18.82
2022-09-09T07:54:18.331Z,18.90
2022-09-09T07:56:45.179Z,19.08
2022-09-09T07:59:12.976Z,18.91
2022-09-09T08:01:51.106Z,19.15
2022-09-09T08:04:20.669Z,19.30
2022-09-09T08:06:52.883Z,19.36
2022-09-09T08:09:21.378Z,19.60
2022-09-09T08:11:48.892Z,19.79
2022-09-09T08:14:16.006Z,19.90
2022-09-09T08:16:48.921Z,20.09
2022-09-09T08:19:16.411Z,20.19
2022-09-09T08:21:45.312Z,20.28
2022-09-09T08:24:15.957Z,20.27
2022-09-09T08:26:45.976Z,20.32
2022-09-09T08:29:14.774Z,20.39
2022-09-09T08:31:52.086Z,20.28
2022-09-09T08:34:20.899Z,20.22
2022-09-09T08:36:49.907Z,20.06
2022-09-09T08:39:20.745Z,19.41
2022-09-09T08:41:53.268Z,19.99
2022-09-09T08:45:01.457Z,20.15
2022-09-09T08:48:15.335Z,20.34
2022-09-09T08:50:44.298Z,20.46
2022-09-09T08:53:39.328Z,20.42
2022-09-09T08:56:18.794Z,20.51
2022-09-09T08:58:50.570Z,20.40
2022-09-09T09:01:41.327Z,20.64
2022-09-09T09:04:39.599Z,20.74
2022-09-09T09:07:33.050Z,20.94
2022-09-09T09:10:42.302Z,21.17
2022-09-09T09:13:22.054Z,20.97
2022-09-09T09:15:59.617Z,21.03
2022-09-09T09:18:27.172Z,21.32
2022-09-09T09:21:11.478Z,21.48
2022-09-09T09:23:59.644Z,20.72
2022-09-09T09:26:39.566Z,20.95
2022-09-09T09:29:15.956Z,21.08
2022-09-09T09:31:56.755Z,20.89
2022-09-09T09:34:25.312Z,20.80
2022-09-09T09:37:02.688Z,20.99
2022-09-09T09:42:26.442Z,21.20
2022-09-09T09:44:53.349Z,21.30
2022-09-09T09:47:22.807Z,21.57
2022-09-09T09:50:00.675Z,21.93
2022-09-09T09:52:33.194Z,21.86
2022-09-09T09:55:07.751Z,22.10
2022-09-09T09:57:35.323Z,21.98
2022-09-09T10:00:14.426Z,22.05
2022-09-09T10:02:44.539Z,22.05
2022-09-09T10:05:26.744Z,22.11
2022-09-09T10:08:04.359Z,22.30
2022-09-09T10:11:00.699Z,22.10
2022-09-09T10:13:39.970Z,22.37
2022-09-09T10:16:24.661Z,22.40
2022-09-09T10:19:28.090Z,22.27
2022-09-09T10:22:08.924Z,22.21
2022-09-09T10:24:51.083Z,22.16
2022-09-09T10:27:36.601Z,21.67
2022-09-09T10:30:50.251Z,21.89
2022-09-09T10:33:59.369Z,21.90
2022-09-09T10:36:27.145Z,21.89
2022-09-09T10:39:07.658Z,22.08
2022-09-09T10:41:37.090Z,22.21
2022-09-09T10:44:12.563Z,22.52
2022-09-09T10:47:09.986Z,22.50
2022-09-09T10:50:19.654Z,22.39
2022-09-09T10:53:24.720Z,22.40
2022-09-09T10:56:10.144Z,22.69
2022-09-09T10:59:08.434Z,22.90
2022-09-09T11:02:10.228Z,23.04
2022-09-09T11:04:49.431Z,23.26
2022-09-09T11:07:34.191Z,23.44
2022-09-09T11:10:26.267Z,23.26
2022-09-09T11:12:59.219Z,23.52
2022-09-09T11:15:46.474Z,23.45
2022-09-09T11:18:22.438Z,23.28
2022-09-09T11:20:57.710Z,23.53
2022-09-09T11:23:41.940Z,23.42
2022-09-09T11:26:18.582Z,23.30
2022-09-09T11:29:07.629Z,23.48
2022-09-09T11:32:20.157Z,23.85
2022-09-09T11:35:12.450Z,24.34
2022-09-09T11:38:29.218Z,25.04
2022-09-09T11:41:20.999Z,25.86
2022-09-09T11:43:53.691Z,25.74
2022-09-09T11:46:36.263Z,25.94
2022-09-09T11:49:43.026Z,25.37
2022-09-09T11:52:37.344Z,25.47
2022-09-09T11:55:28.150Z,25.65
2022-09-09T11:58:13.187Z,25.35
2022-09-09T12:00:42.886Z,24.94
2022-09-09T12:03:39.799Z,24.73
2022-09-09T12:06:14.382Z,25.18
2022-09-09T12:08:46.435Z,24.98
2022-09-09T12:11:13.346Z,24.42
2022-09-09T12:13:42.792Z,24.74
2022-09-09T12:16:34.090Z,24.22
2022-09-09T12:19:06.666Z,24.70
2022-09-09T12:21:58.853Z,25.13
2022-09-09T12:24:55.616Z,25.91
2022-09-09T12:27:48.965Z,25.75
2022-09-09T12:30:17.111Z,25.65
2022-09-09T12:32:45.488Z,25.01
2022-09-09T12:35:27.287Z,24.61
2022-09-09T12:38:00.221Z,24.31
2022-09-09T12:40:36.070Z,24.33
2022-09-09T12:43:24.410Z,23.97
2022-09-09T12:46:04.436Z,24.33
2022-09-09T12:48:42.895Z,25.00
2022-09-09T12:51:39.167Z,26.29
2022-09-09T12:54:06.396Z,27.92
2022-09-09T12:56:36.239Z,30.11
2022-09-09T12:59:03.155Z,30.38
2022-09-09T13:01:34.441Z,29.88
2022-09-09T13:04:01.704Z,28.49
2022-09-09T13:06:33.306Z,27.81
2022-09-09T13:09:02.848Z,28.59
2022-09-09T13:11:36.991Z,29.98
2022-09-09T13:14:04.100Z,30.25
2022-09-09T13:16:37.656Z,29.36
2022-09-09T13:19:15.952Z,28.39
2022-09-09T13:21:43.549Z,28.64
2022-09-09T13:24:35.764Z,29.51
2022-09-09T13:27:25.573Z,28.99
2022-09-09T13:29:57.765Z,28.76
2022-09-09T13:32:29.846Z,27.89
2022-09-09T13:35:00.079Z,27.32
2022-09-09T13:37:35.314Z,26.88
2022-09-09T13:40:05.124Z,26.11
2022-09-09T13:42:37.147Z,25.15
2022-09-09T13:45:05.465Z,25.05
2022-09-09T13:47:37.593Z,25.38
2022-09-09T13:50:29.593Z,27.14
2022-09-09T13:52:59.265Z,28.02
2022-09-09T13:55:30.746Z,29.25
2022-09-09T13:58:02.767Z,28.13
2022-09-09T14:00:35.656Z,26.10
2022-09-09T14:03:02.990Z,26.15
2022-09-09T14:05:33.185Z,25.75
2022-09-09T14:08:01.568Z,25.33
2022-09-09T14:10:28.445Z,25.74
2022-09-09T14:12:55.215Z,25.07
2022-09-09T14:15:22.767Z,24.66
2022-09-09T14:17:49.555Z,24.78
2022-09-09T14:20:18.438Z,24.27
2022-09-09T14:22:45.518Z,23.94
2022-09-09T14:25:14.378Z,24.36
2022-09-09T14:27:41.587Z,24.19
2022-09-09T14:30:09.610Z,24.18
2022-09-09T14:32:36.540Z,24.45
2022-09-09T14:35:03.643Z,25.68
2022-09-09T14:37:32.017Z,26.64
2022-09-09T14:39:59.377Z,27.29
2022-09-09T14:42:27.622Z,26.81
2022-09-09T14:44:54.433Z,25.74
2022-09-09T14:47:21.217Z,24.56
2022-09-09T14:49:50.465Z,23.92
2022-09-09T14:52:17.443Z,23.65
2022-09-09T14:54:44.217Z,23.14
2022-09-09T14:57:10.974Z,23.17
2022-09-09T14:59:37.750Z,22.85
2022-09-09T15:02:05.506Z,22.68
2022-09-09T15:04:32.699Z,22.43
2022-09-09T15:06:59.757Z,22.46
2022-09-09T15:09:26.499Z,22.40
2022-09-09T15:11:53.303Z,22.36
2022-09-09T15:14:22.623Z,22.46
2022-09-09T15:16:52.063Z,22.58
2022-09-09T15:19:18.866Z,22.31
2022-09-09T15:21:45.621Z,22.58
2022-09-09T15:24:14.207Z,22.56
2022-09-09T15:26:40.993Z,22.30
2022-09-09T15:29:09.031Z,22.73
2022-09-09T15:31:36.474Z,22.90
2022-09-09T15:34:06.514Z,23.26
2022-09-09T15:36:36.833Z,23.88
2022-09-09T15:39:06.777Z,24.10
2022-09-09T15:41:33.862Z,24.47
2022-09-09T15:44:01.763Z,24.28
2022-09-09T15:46:36.878Z,24.26
2022-09-09T15:49:20.535Z,24.43
2022-09-09T15:51:53.586Z,24.30
2022-09-09T15:54:23.627Z,23.99
2022-09-09T15:56:56.831Z,24.02
2022-09-09T15:59:28.683Z,23.80
2022-09-09T16:01:56.376Z,23.89
2022-09-09T16:04:24.655Z,23.77
2022-09-09T16:07:05.886Z,23.42
2022-09-09T16:09:33.832Z,23.56
2022-09-09T16:12:03.318Z,23.37
2022-09-09T16:14:34.956Z,23.47
2022-09-09T16:17:01.953Z,23.37
2022-09-09T16:19:28.769Z,23.31
2022-09-09T16:21:55.649Z,23.23
2022-09-09T16:24:23.174Z,23.06
2022-09-09T16:26:53.118Z,22.84
2022-09-09T16:29:20.595Z,22.83
2022-09-09T16:31:49.206Z,22.65
2022-09-09T16:34:18.456Z,22.75
2022-09-09T16:36:46.198Z,22.49
2022-09-09T16:39:18.063Z,22.53
2022-09-09T16:41:46.401Z,22.48
2022-09-09T16:44:16.058Z,22.62
2022-09-09T16:46:44.642Z,22.66
2022-09-09T16:49:14.411Z,22.77
2022-09-09T16:51:48.179Z,22.66
2022-09-09T16:54:17.051Z,22.77
2022-09-09T16:56:46.405Z,22.77
2022-09-09T16:59:17.303Z,22.79
2022-09-09T17:01:46.642Z,22.77
2022-09-09T17:04:21.071Z,22.56
2022-09-09T17:06:50.400Z,22.32
2022-09-09T17:09:18.479Z,22.21
2022-09-09T17:11:46.445Z,22.15
2022-09-09T17:14:18.110Z,22.17
2022-09-09T17:16:45.572Z,21.98
2022-09-09T17:19:13.186Z,21.85
2022-09-09T17:22:00.109Z,21.84
2022-09-09T17:24:29.858Z,21.67
2022-09-09T17:26:56.779Z,21.49
2022-09-09T17:29:23.551Z,21.33
2022-09-09T17:31:50.317Z,21.12
2022-09-09T17:34:17.074Z,20.96
2022-09-09T17:36:43.827Z,20.79
2022-09-09T17:39:10.591Z,20.66
2022-09-09T17:41:40.313Z,20.75
2022-09-09T17:44:09.969Z,20.69
2022-09-09T17:46:41.257Z,20.49
2022-09-09T17:49:14.966Z,20.31
2022-09-09T17:51:43.550Z,20.25
2022-09-09T17:54:15.597Z,20.16
2022-09-09T17:56:42.882Z,20.03
2022-09-09T17:59:13.264Z,19.96
2022-09-09T18:01:44.966Z,19.86
2022-09-09T18:04:14.258Z,19.73
2022-09-09T18:06:52.231Z,19.54
2022-09-09T18:09:23.304Z,19.45
2022-09-09T18:11:54.535Z,19.20
2022-09-09T18:14:27.657Z,18.78
2022-09-09T18:16:54.624Z,18.61
2022-09-09T18:19:25.423Z,18.55
2022-09-09T18:21:52.988Z,18.41
2022-09-09T18:24:21.872Z,18.30
2022-09-09T18:26:50.219Z,18.32
2022-09-09T18:29:25.070Z,18.32
2022-09-09T18:31:54.429Z,18.27
2022-09-09T18:34:22.687Z,18.26
2022-09-09T18:36:54.399Z,18.35
2022-09-09T18:39:24.964Z,18.53
2022-09-09T18:41:55.241Z,18.59
2022-09-09T18:44:26.025Z,18.67
2022-09-09T18:46:54.272Z,18.68
2022-09-09T18:49:24.312Z,18.78
2022-09-09T18:51:51.318Z,18.85
2022-09-09T18:54:23.388Z,18.88
2022-09-09T18:56:50.539Z,18.90
2022-09-09T18:59:20.624Z,18.85
2022-09-09T19:01:50.328Z,19.00
2022-09-09T19:04:19.484Z,19.08
2022-09-09T19:06:48.183Z,18.96
2022-09-09T19:09:17.915Z,19.09
2022-09-09T19:11:45.690Z,19.13
2022-09-09T19:14:16.638Z,19.22
2022-09-09T19:16:45.235Z,18.86
2022-09-09T19:19:19.778Z,18.97
2022-09-09T19:21:47.250Z,18.88
2022-09-09T19:24:21.845Z,18.75
2022-09-09T19:26:55.160Z,18.45
2022-09-09T19:29:27.702Z,18.24
2022-09-09T19:34:44.550Z,18.07
2022-09-09T19:37:16.354Z,17.95
2022-09-09T19:39:45.935Z,17.81
2022-09-09T19:42:12.829Z,17.70
2022-09-09T19:44:39.665Z,17.58
2022-09-09T19:47:07.240Z,17.36
2022-09-09T19:49:35.158Z,17.07
2022-09-09T19:52:02.359Z,16.92
2022-09-09T19:54:29.275Z,16.93
2022-09-09T19:56:56.556Z,16.89
2022-09-09T19:59:23.369Z,16.88
2022-09-09T20:01:50.231Z,16.84
2022-09-09T20:04:17.708Z,16.59
2022-09-09T20:06:45.666Z,16.68
2022-09-09T20:09:17.989Z,16.57
2022-09-09T20:11:46.923Z,16.47
2022-09-09T20:14:15.099Z,16.04
2022-09-09T20:16:42.701Z,15.90
2022-09-09T20:19:12.275Z,16.03
2022-09-09T20:21:47.366Z,16.00
2022-09-09T20:24:19.344Z,15.94
2022-09-09T20:26:48.183Z,16.00
2022-09-09T20:29:18.617Z,15.93
2022-09-09T20:31:45.749Z,15.93
2022-09-09T20:34:19.621Z,16.18
2022-09-09T20:36:47.044Z,15.92
2022-09-09T20:39:17.170Z,15.84
2022-09-09T20:41:45.940Z,15.80
2022-09-09T20:44:24.980Z,15.87
2022-09-09T20:47:02.579Z,15.90
2022-09-09T20:49:29.634Z,15.85
2022-09-09T20:51:56.389Z,15.80
2022-09-09T20:54:26.300Z,15.82
2022-09-09T20:56:55.178Z,15.72
2022-09-09T20:59:24.939Z,15.72
2022-09-09T21:01:52.978Z,15.73
2022-09-09T21:04:21.582Z,15.81
2022-09-09T21:06:50.987Z,15.83
2022-09-09T21:09:18.071Z,15.70
2022-09-09T21:11:44.823Z,15.56
2022-09-09T21:14:12.403Z,15.59
2022-09-09T21:16:39.199Z,15.57
2022-09-09T21:19:06.710Z,15.61
2022-09-09T21:21:33.450Z,15.62
2022-09-09T21:24:00.563Z,15.66
2022-09-09T21:26:27.769Z,15.64
2022-09-09T21:28:55.812Z,15.64
2022-09-09T21:31:27.947Z,15.64
2022-09-09T21:33:58.358Z,15.62
2022-09-09T21:36:28.034Z,15.55
2022-09-09T21:38:54.826Z,15.53
2022-09-09T21:41:21.563Z,15.32
2022-09-09T21:43:53.956Z,15.36
2022-09-09T21:46:21.476Z,15.42
2022-09-09T21:48:48.594Z,15.32
2022-09-09T21:51:17.095Z,15.41
2022-09-09T21:53:44.626Z,15.46
2022-09-09T21:56:15.492Z,15.52
2022-09-09T21:58:42.594Z,15.67
2022-09-09T22:01:16.248Z,15.60
2022-09-09T22:03:43.930Z,15.64
2022-09-09T22:06:14.905Z,15.81
2022-09-09T22:08:42.584Z,15.90
2022-09-09T22:11:22.348Z,15.94
2022-09-09T22:13:49.493Z,16.04
2022-09-09T22:16:19.641Z,16.12
2022-09-09T22:18:56.595Z,16.14
2022-09-09T22:21:26.286Z,16.22
2022-09-09T22:23:55.962Z,16.30
2022-09-09T22:26:24.370Z,16.38
2022-09-09T22:28:53.673Z,16.22
2022-09-09T22:31:22.530Z,16.25
2022-09-09T22:33:49.527Z,16.25
2022-09-09T22:36:16.801Z,16.27
2022-09-09T22:38:43.691Z,16.31
2022-09-09T22:41:10.534Z,16.32
2022-09-09T22:43:37.354Z,16.41
2022-09-09T22:46:04.732Z,16.43
2022-09-09T22:48:36.467Z,16.37
2022-09-09T22:51:05.585Z,16.44
2022-09-09T22:53:32.748Z,16.42
2022-09-09T22:56:03.174Z,16.45
2022-09-09T22:58:32.697Z,16.44
2022-09-09T23:01:00.447Z,16.47
2022-09-09T23:03:29.567Z,16.45
2022-09-09T23:06:01.657Z,16.07
2022-09-09T23:08:35.413Z,16.06
2022-09-09T23:11:10.972Z,16.04
2022-09-09T23:13:41.439Z,16.05
2022-09-09T23:16:16.957Z,16.07
2022-09-09T23:18:44.075Z,16.11
2022-09-09T23:21:12.863Z,16.16
2022-09-09T23:23:43.126Z,16.19
2022-09-09T23:26:12.510Z,16.25
2022-09-09T23:28:43.636Z,16.24
2022-09-09T23:31:13.603Z,16.23
2022-09-09T23:33:41.786Z,16.20
2022-09-09T23:36:13.712Z,16.18
2022-09-09T23:38:41.123Z,16.10
2022-09-09T23:41:11.536Z,16.10
2022-09-09T23:43:43.472Z,16.02
2022-09-09T23:46:15.107Z,16.00
2022-09-09T23:48:43.546Z,15.91
2022-09-09T23:51:17.429Z,15.90
2022-09-09T23:53:48.806Z,15.90
2022-09-09T23:56:15.551Z,15.86
2022-09-09T23:58:42.318Z,15.83
